セントジョンズ の空港の天気 - METARとTAF

VCバード国際空港 ( TAPA / ANU ) - アンティグア・バーブーダ セントジョンズ (アンティグア島)
飛行場実況気象(Metar)
観測時間02/06 15:00 AST (02/06 19:00 UTC)
風向・風速東 5m/s
視程10km以上
天気現象周辺でしゅう雨
全天の4割程度の雲 雲底高度 550m
気温27℃
湿度66%
気圧1016hPa
METARTAPA 061900Z 10010KT 030V150 9999 VCSH SCT018 27/20 Q1016 NOSIG
過去の天気等 Google飛行場航空写真 Wunderground天気予報

過去48時間のMETAR

飛行場予報(TAF)
発表時間: 2/06 13:13 AST (2/06 17:13 UTC)
予報対象時間: 6日14時 AST ~ 7日14時 AST
風向・風速東 7m/s
視程10km以上
全天の4割程度の雲 雲底高度 670m
6日14時 AST ~ 7日10時 AST に 確率 40% で一時的に
風向・風速東 8m/s 瞬間風速 13m/s
天気現象しゅう雨
TAF TAPA 061713Z 0618/0718 09013KT 9999 SCT022
PROB40 TEMPO 0618/0714 09015G25KT SHRA